Time;durP1;ratioP1;P1;durP2;ratioP2;P2;SDS_P1;SDS_P2;PMS_P1;PMS_P2;Temp;Humidity;BMP_temperature;BMP_pressure;BME280_temperature;BME280_humidity;BME280_pressure;Samples;Min_cycle;Max_cycle;Signal;HPM_P1;HPM_P2
2023/06/14 00:01:20;;;;;;;8.20;4.03;;;17.40;75.80;;;;;;5003728;28;20045;-68
2023/06/14 00:03:47;;;;;;;7.60;3.92;;;17.30;76.30;;;;;;5017114;28;20029;-67
2023/06/14 00:06:13;;;;;;;6.72;3.88;;;17.10;77.20;;;;;;5015997;28;20109;-67
2023/06/14 00:08:39;;;;;;;7.10;3.85;;;17.00;77.60;;;;;;5019769;28;20109;-67
2023/06/14 00:11:05;;;;;;;5.85;3.45;;;16.90;77.70;;;;;;5023309;28;20036;-68
2023/06/14 00:13:31;;;;;;;11.43;4.38;;;16.80;77.70;;;;;;5014960;28;20029;-67
2023/06/14 00:15:56;;;;;;;7.05;4.07;;;16.80;77.30;;;;;;5019949;28;20035;-66
2023/06/14 00:18:23;;;;;;;8.30;3.75;;;16.70;78.40;;;;;;5018159;28;20029;-67
2023/06/14 00:20:51;;;;;;;5.63;3.45;;;16.70;78.40;;;;;;5019187;28;20032;-68
2023/06/14 00:23:16;;;;;;;7.82;3.92;;;16.70;77.50;;;;;;5015469;28;20462;-68
2023/06/14 00:25:42;;;;;;;7.43;4.45;;;16.70;77.70;;;;;;5026600;28;20034;-69
2023/06/14 00:28:07;;;;;;;6.63;4.53;;;16.70;78.00;;;;;;5018260;28;20036;-67
2023/06/14 00:30:33;;;;;;;6.82;3.88;;;16.70;76.50;;;;;;5017608;28;20501;-67
2023/06/14 00:32:59;;;;;;;8.63;4.15;;;16.70;77.00;;;;;;5021766;28;20036;-67
2023/06/14 00:35:25;;;;;;;6.80;3.40;;;16.70;76.60;;;;;;5024553;28;20025;-67
2023/06/14 00:37:51;;;;;;;6.07;3.65;;;16.70;76.60;;;;;;5018951;28;20558;-67
2023/06/14 00:40:16;;;;;;;7.57;3.38;;;16.70;75.80;;;;;;5015815;28;20376;-67
2023/06/14 00:42:42;;;;;;;5.65;3.70;;;16.80;75.00;;;;;;5019415;28;20026;-67
2023/06/14 00:45:08;;;;;;;12.27;3.90;;;16.80;75.00;;;;;;5019228;28;20068;-68
2023/06/14 00:47:37;;;;;;;5.95;3.42;;;16.90;74.50;;;;;;5017130;28;20119;-67
2023/06/14 00:50:05;;;;;;;6.45;3.75;;;16.90;74.60;;;;;;5023165;28;20250;-67
2023/06/14 00:52:32;;;;;;;7.07;3.58;;;16.90;73.90;;;;;;5011658;28;20037;-67
2023/06/14 00:54:58;;;;;;;6.65;3.25;;;17.00;74.20;;;;;;5019206;28;20117;-67
2023/06/14 00:57:24;;;;;;;5.53;3.67;;;17.00;73.90;;;;;;5019354;28;20510;-67
2023/06/14 00:59:50;;;;;;;5.57;2.97;;;16.90;74.00;;;;;;5009210;28;20042;-68
2023/06/14 01:02:16;;;;;;;7.13;3.47;;;16.90;73.60;;;;;;5015242;28;20052;-67
2023/06/14 01:04:45;;;;;;;7.97;3.55;;;16.90;73.40;;;;;;5027284;28;20030;-67
2023/06/14 01:07:24;;;;;;;6.30;3.30;;;16.90;73.40;;;;;;5022068;28;20029;-68
2023/06/14 01:10:32;;;;;;;7.22;3.20;;;16.90;73.20;;;;;;5017730;28;20034;-67
2023/06/14 01:13:10;;;;;;;8.90;3.72;;;16.90;73.20;;;;;;5014559;28;20026;-67
2023/06/14 01:15:37;;;;;;;5.57;3.65;;;16.80;73.90;;;;;;5021453;28;20568;-67
2023/06/14 01:18:04;;;;;;;5.13;3.15;;;16.80;73.90;;;;;;5026280;28;20102;-67
2023/06/14 01:20:32;;;;;;;5.65;3.33;;;16.80;73.80;;;;;;5022546;28;20419;-67
2023/06/14 01:22:58;;;;;;;6.13;3.25;;;16.80;73.50;;;;;;5023740;28;20021;-67
2023/06/14 01:25:25;;;;;;;4.63;2.90;;;16.80;72.70;;;;;;5022429;28;20043;-67
2023/06/14 01:27:59;;;;;;;7.25;3.42;;;16.90;72.70;;;;;;5022480;28;20515;-68
2023/06/14 01:30:26;;;;;;;5.53;3.58;;;16.90;72.50;;;;;;5018169;28;20037;-67
2023/06/14 01:32:53;;;;;;;6.93;3.38;;;16.90;72.40;;;;;;5026576;28;20540;-67
2023/06/14 01:35:18;;;;;;;5.00;3.30;;;16.90;71.80;;;;;;5029655;28;20033;-67
2023/06/14 01:37:47;;;;;;;4.80;2.85;;;17.00;71.90;;;;;;5025827;28;20483;-67
2023/06/14 01:40:15;;;;;;;5.20;2.90;;;16.90;71.80;;;;;;5027260;28;20014;-68
2023/06/14 01:42:42;;;;;;;5.50;3.15;;;17.00;71.60;;;;;;5021256;28;20403;-68
2023/06/14 01:45:09;;;;;;;7.60;3.78;;;16.90;71.80;;;;;;5031157;28;20029;-67
2023/06/14 01:47:36;;;;;;;6.75;2.42;;;16.90;71.60;;;;;;5027811;28;20592;-68
2023/06/14 01:50:05;;;;;;;6.07;2.97;;;16.90;71.50;;;;;;5024408;28;20036;-67
2023/06/14 01:52:31;;;;;;;4.82;2.78;;;16.90;71.50;;;;;;5018130;28;20025;-68
2023/06/14 01:54:57;;;;;;;5.07;2.97;;;16.90;71.20;;;;;;5015619;28;20025;-67
2023/06/14 01:57:25;;;;;;;5.45;3.22;;;16.90;71.50;;;;;;5021361;28;20032;-68
2023/06/14 01:59:50;;;;;;;6.70;3.15;;;16.80;71.80;;;;;;5032285;28;20518;-67
2023/06/14 02:02:16;;;;;;;7.20;3.50;;;16.70;71.40;;;;;;5011316;28;20053;-67
2023/06/14 02:04:42;;;;;;;5.65;2.92;;;16.70;71.40;;;;;;5026071;28;20048;-67
2023/06/14 02:07:08;;;;;;;8.40;2.88;;;16.70;71.60;;;;;;5025325;28;20029;-67
2023/06/14 02:09:34;;;;;;;4.90;2.83;;;16.70;71.50;;;;;;5021289;28;20034;-67
2023/06/14 02:12:00;;;;;;;5.68;2.88;;;16.70;71.40;;;;;;5019819;28;20033;-67
2023/06/14 02:14:26;;;;;;;9.70;4.32;;;16.70;71.70;;;;;;5020737;28;20038;-67
2023/06/14 02:16:53;;;;;;;5.95;3.33;;;16.60;71.70;;;;;;5023845;28;20104;-67
2023/06/14 02:19:20;;;;;;;6.25;3.13;;;16.60;71.70;;;;;;5028453;28;20025;-67
2023/06/14 02:21:46;;;;;;;3.90;2.83;;;16.60;71.80;;;;;;5023469;28;20044;-67
2023/06/14 02:24:12;;;;;;;5.20;2.85;;;16.60;71.30;;;;;;5022265;28;20030;-67
2023/06/14 02:26:37;;;;;;;11.70;3.55;;;16.50;71.60;;;;;;5020509;28;20026;-67
2023/06/14 02:29:09;;;;;;;5.07;2.97;;;16.50;72.00;;;;;;5020768;28;20457;-67
2023/06/14 02:31:35;;;;;;;5.90;2.92;;;16.50;71.90;;;;;;5018396;28;20917;-67
2023/06/14 02:34:01;;;;;;;6.15;3.08;;;16.50;72.20;;;;;;5013439;28;20140;-67
2023/06/14 02:36:27;;;;;;;7.10;2.47;;;16.40;72.50;;;;;;5017470;28;20028;-68
2023/06/14 02:38:54;;;;;;;4.22;2.63;;;16.40;72.50;;;;;;5025489;28;20025;-68
2023/06/14 02:41:19;;;;;;;6.70;2.97;;;16.30;72.10;;;;;;5021893;28;20030;-68
2023/06/14 02:43:45;;;;;;;6.00;2.67;;;16.30;72.30;;;;;;5022487;28;20644;-67
2023/06/14 02:46:11;;;;;;;5.65;3.17;;;16.30;72.50;;;;;;5016203;28;20033;-67
2023/06/14 02:48:36;;;;;;;4.60;2.67;;;16.20;72.70;;;;;;5019155;28;20547;-67
2023/06/14 02:51:02;;;;;;;6.00;3.10;;;16.20;72.60;;;;;;5022808;28;20412;-67
2023/06/14 02:53:28;;;;;;;7.10;3.08;;;16.10;72.70;;;;;;5017474;28;20030;-68
2023/06/14 02:55:55;;;;;;;5.78;2.97;;;16.10;72.70;;;;;;5025146;28;20112;-67
2023/06/14 02:58:21;;;;;;;7.80;3.00;;;16.20;72.20;;;;;;5020670;28;20053;-67
2023/06/14 03:00:46;;;;;;;7.65;2.90;;;16.20;72.00;;;;;;5007803;28;20225;-67
2023/06/14 03:03:13;;;;;;;5.60;2.53;;;16.30;72.10;;;;;;5023687;28;20100;-67
2023/06/14 03:05:47;;;;;;;6.07;2.75;;;16.30;72.10;;;;;;5033477;28;20022;-67
2023/06/14 03:08:19;;;;;;;4.60;2.47;;;16.20;72.80;;;;;;5017825;28;20104;-67
2023/06/14 03:10:48;;;;;;;6.25;2.63;;;16.20;72.30;;;;;;5023869;28;20021;-67
2023/06/14 03:13:15;;;;;;;6.68;2.50;;;16.20;72.30;;;;;;5021413;28;20083;-67
2023/06/14 03:15:41;;;;;;;5.57;3.08;;;16.20;72.30;;;;;;5025371;28;20626;-67
2023/06/14 03:18:11;;;;;;;5.90;2.30;;;16.20;72.60;;;;;;5020800;28;20026;-67
2023/06/14 03:20:37;;;;;;;6.18;3.08;;;16.20;72.50;;;;;;5016374;28;20025;-67
2023/06/14 03:23:04;;;;;;;4.18;2.58;;;16.20;72.50;;;;;;5023761;28;21747;-68
2023/06/14 03:25:31;;;;;;;5.13;3.17;;;16.20;72.70;;;;;;5020022;28;20057;-67
2023/06/14 03:27:57;;;;;;;4.35;2.40;;;16.20;72.60;;;;;;5022836;28;20029;-68
2023/06/14 03:30:22;;;;;;;6.63;2.28;;;16.20;72.60;;;;;;5025711;28;20025;-68
2023/06/14 03:32:48;;;;;;;4.40;2.90;;;16.20;72.50;;;;;;5028285;28;20041;-67
2023/06/14 03:35:17;;;;;;;6.78;2.78;;;16.20;72.80;;;;;;5027280;28;20033;-68
2023/06/14 03:37:44;;;;;;;5.07;2.83;;;16.20;72.90;;;;;;5024332;28;20040;-69
2023/06/14 03:40:11;;;;;;;3.83;2.53;;;16.20;73.00;;;;;;5027127;28;20043;-67
2023/06/14 03:42:36;;;;;;;8.30;2.97;;;16.20;72.50;;;;;;5026466;28;20030;-67
2023/06/14 03:45:02;;;;;;;4.90;2.40;;;16.20;72.50;;;;;;5029657;28;20029;-68
2023/06/14 03:47:28;;;;;;;8.70;2.85;;;16.30;72.80;;;;;;5030395;28;20655;-67
2023/06/14 03:49:53;;;;;;;6.22;2.63;;;16.30;72.80;;;;;;5031617;28;20120;-68
2023/06/14 03:52:19;;;;;;;8.52;2.63;;;16.30;73.10;;;;;;5023843;28;20034;-67
2023/06/14 03:54:44;;;;;;;5.28;2.67;;;16.30;73.20;;;;;;5028562;28;20431;-67
2023/06/14 03:57:10;;;;;;;7.75;2.53;;;16.20;73.10;;;;;;5025644;28;20022;-67
2023/06/14 03:59:36;;;;;;;4.38;2.90;;;16.20;73.40;;;;;;5027252;28;20025;-67
2023/06/14 04:02:02;;;;;;;7.53;2.55;;;16.20;73.60;;;;;;5001874;28;20137;-67
2023/06/14 04:04:28;;;;;;;3.88;2.40;;;16.20;74.10;;;;;;5026041;28;20112;-67
2023/06/14 04:06:56;;;;;;;8.50;3.45;;;16.20;74.00;;;;;;5039945;28;20446;-67
2023/06/14 04:09:24;;;;;;;4.07;2.45;;;16.20;74.40;;;;;;5021466;28;20044;-67
2023/06/14 04:11:53;;;;;;;6.05;2.55;;;16.20;74.20;;;;;;5022796;28;20051;-67
2023/06/14 04:14:22;;;;;;;7.85;3.30;;;16.20;74.50;;;;;;5026017;28;20092;-67
2023/06/14 04:16:49;;;;;;;4.45;2.63;;;16.30;74.20;;;;;;5028816;28;20113;-67
2023/06/14 04:19:15;;;;;;;5.13;3.42;;;16.30;74.40;;;;;;5020784;28;20033;-67
2023/06/14 04:21:41;;;;;;;10.43;3.03;;;16.30;74.30;;;;;;5026427;28;20021;-67
2023/06/14 04:24:12;;;;;;;4.45;2.53;;;16.30;74.70;;;;;;5025421;28;20052;-68
2023/06/14 04:26:39;;;;;;;3.03;2.33;;;16.30;75.00;;;;;;5020659;28;20392;-67
2023/06/14 04:29:05;;;;;;;12.75;2.90;;;16.40;74.80;;;;;;5025609;28;20395;-68
2023/06/14 04:31:34;;;;;;;8.15;2.63;;;16.50;74.20;;;;;;5023767;28;20026;-67
2023/06/14 04:34:00;;;;;;;5.07;2.70;;;16.80;74.60;;;;;;5028191;28;20041;-67
2023/06/14 04:36:27;;;;;;;4.20;2.45;;;17.70;72.10;;;;;;5014059;28;20699;-67
2023/06/14 04:38:54;;;;;;;6.15;2.85;;;18.90;69.20;;;;;;5014432;28;20032;-67
2023/06/14 04:41:22;;;;;;;8.00;3.42;;;20.30;66.80;;;;;;5021157;28;20025;-68
2023/06/14 04:43:49;;;;;;;8.27;2.47;;;21.70;62.80;;;;;;5024544;28;20015;-67
2023/06/14 04:46:15;;;;;;;7.68;2.92;;;22.70;61.00;;;;;;5021768;28;20487;-67
2023/06/14 04:48:42;;;;;;;4.43;2.38;;;23.10;60.50;;;;;;5021572;28;20644;-68
2023/06/14 04:51:09;;;;;;;6.38;2.85;;;24.40;57.70;;;;;;5025077;28;20044;-68
2023/06/14 04:53:35;;;;;;;4.93;2.88;;;24.90;56.40;;;;;;5024476;28;20376;-68
2023/06/14 04:56:01;;;;;;;4.45;2.25;;;25.60;54.80;;;;;;5020124;28;20496;-68
2023/06/14 04:58:28;;;;;;;4.47;2.47;;;26.40;54.10;;;;;;5025898;28;20044;-67
2023/06/14 05:00:55;;;;;;;3.65;2.75;;;26.30;53.30;;;;;;5022613;28;20029;-68
2023/06/14 05:03:22;;;;;;;4.38;2.50;;;25.90;55.30;;;;;;5009723;28;20114;-68
2023/06/14 05:05:48;;;;;;;4.90;2.53;;;26.40;54.70;;;;;;5026968;28;20036;-68
2023/06/14 05:08:14;;;;;;;6.35;2.40;;;26.90;53.80;;;;;;5026048;28;20037;-68
2023/06/14 05:10:39;;;;;;;3.75;2.58;;;27.10;53.00;;;;;;5015788;28;20444;-68
2023/06/14 05:13:05;;;;;;;9.98;2.90;;;27.30;53.60;;;;;;5025006;28;20298;-68
2023/06/14 05:15:30;;;;;;;7.65;2.90;;;28.80;50.90;;;;;;5026216;28;20025;-68
2023/06/14 05:17:56;;;;;;;10.25;2.42;;;29.10;50.60;;;;;;5029384;28;20037;-68
2023/06/14 05:20:24;;;;;;;4.63;2.17;;;28.80;51.30;;;;;;5030281;28;20017;-68
2023/06/14 05:22:53;;;;;;;10.30;2.67;;;28.70;51.40;;;;;;5029690;28;20476;-68
2023/06/14 05:25:22;;;;;;;5.88;2.92;;;28.60;52.20;;;;;;5018966;28;20109;-68
2023/06/14 05:27:48;;;;;;;6.05;2.42;;;29.90;50.60;;;;;;5027839;28;20041;-68
2023/06/14 05:30:15;;;;;;;5.82;2.40;;;29.50;50.30;;;;;;5032424;28;20430;-69
2023/06/14 05:32:41;;;;;;;6.25;2.22;;;29.30;50.80;;;;;;5037354;28;20112;-68
2023/06/14 05:35:07;;;;;;;3.63;2.38;;;29.50;50.40;;;;;;5047036;28;20035;-69
2023/06/14 05:37:33;;;;;;;4.30;2.40;;;29.40;50.00;;;;;;5035072;28;20025;-68
2023/06/14 05:39:58;;;;;;;4.53;2.13;;;29.30;50.50;;;;;;5030006;28;20021;-68
2023/06/14 05:42:24;;;;;;;5.32;2.55;;;29.40;50.30;;;;;;5024181;28;20130;-68
2023/06/14 05:44:49;;;;;;;2.60;2.22;;;29.30;50.30;;;;;;5033875;28;20056;-68
2023/06/14 05:47:16;;;;;;;6.50;2.47;;;30.00;49.90;;;;;;5024672;28;20056;-68
2023/06/14 05:49:42;;;;;;;5.95;2.75;;;30.60;49.00;;;;;;5027423;28;20026;-68
2023/06/14 05:52:08;;;;;;;5.43;2.30;;;30.60;49.00;;;;;;5023120;28;20033;-68
2023/06/14 05:54:33;;;;;;;6.57;2.65;;;30.80;48.80;;;;;;5028826;28;20380;-68
2023/06/14 05:57:04;;;;;;;3.10;2.30;;;31.00;48.90;;;;;;5032143;28;20040;-68
2023/06/14 05:59:30;;;;;;;4.32;2.00;;;31.00;48.00;;;;;;5027859;28;20040;-66
2023/06/14 06:01:55;;;;;;;4.63;2.47;;;31.10;47.90;;;;;;5007618;28;20036;-67
2023/06/14 06:04:21;;;;;;;4.75;2.10;;;31.20;48.50;;;;;;5015386;28;20508;-66
2023/06/14 06:06:47;;;;;;;7.10;2.45;;;31.70;48.20;;;;;;5027348;28;20035;-66
2023/06/14 06:09:14;;;;;;;9.35;2.70;;;32.00;47.50;;;;;;5028273;28;20075;-66
2023/06/14 06:11:40;;;;;;;3.67;2.40;;;32.30;48.10;;;;;;5029314;28;20029;-66
2023/06/14 06:14:06;;;;;;;4.65;3.20;;;31.90;47.30;;;;;;5029577;28;20120;-66
2023/06/14 06:16:31;;;;;;;6.57;2.25;;;32.50;47.60;;;;;;5031898;28;20088;-65
2023/06/14 06:18:57;;;;;;;4.70;2.40;;;32.00;47.30;;;;;;5017561;28;20507;-66
2023/06/14 06:21:23;;;;;;;5.13;2.10;;;32.10;46.30;;;;;;5028363;28;20380;-66
2023/06/14 06:23:48;;;;;;;4.75;2.15;;;32.10;48.40;;;;;;5027416;28;20021;-65
2023/06/14 06:26:14;;;;;;;4.88;1.95;;;31.60;46.60;;;;;;5028264;28;20033;-66
2023/06/14 06:28:40;;;;;;;10.63;3.03;;;31.30;47.60;;;;;;5026445;28;20377;-66
2023/06/14 06:31:05;;;;;;;3.55;2.22;;;31.30;47.60;;;;;;5026444;28;20116;-65
2023/06/14 06:33:31;;;;;;;4.22;1.63;;;32.30;45.20;;;;;;5019167;28;20664;-66
2023/06/14 06:35:56;;;;;;;5.32;2.00;;;32.40;45.70;;;;;;5027956;28;20108;-67
2023/06/14 06:38:22;;;;;;;4.35;2.13;;;32.20;46.10;;;;;;5024568;28;20428;-65
2023/06/14 06:40:48;;;;;;;9.82;2.10;;;32.40;45.90;;;;;;5027016;28;20067;-66
2023/06/14 06:43:13;;;;;;;4.75;1.80;;;33.40;45.20;;;;;;5031329;28;20026;-66
2023/06/14 06:45:40;;;;;;;8.18;2.47;;;32.90;44.60;;;;;;5026254;28;20033;-68
2023/06/14 06:48:06;;;;;;;5.10;1.80;;;32.60;46.40;;;;;;5022066;28;20032;-69
2023/06/14 06:50:31;;;;;;;7.28;1.95;;;32.70;46.90;;;;;;5022245;28;20033;-65
2023/06/14 06:52:57;;;;;;;9.15;1.73;;;32.20;47.20;;;;;;5028764;28;20021;-66
2023/06/14 06:55:23;;;;;;;5.35;1.98;;;32.70;45.60;;;;;;5034526;28;20036;-66
2023/06/14 06:57:49;;;;;;;4.07;1.83;;;33.50;45.00;;;;;;5027060;28;20395;-67
2023/06/14 07:00:16;;;;;;;2.25;1.40;;;33.00;44.60;;;;;;5028012;28;20445;-67
2023/06/14 07:02:41;;;;;;;2.75;1.58;;;33.00;44.20;;;;;;5008436;28;20042;-67
2023/06/14 07:05:08;;;;;;;7.88;1.42;;;32.80;44.90;;;;;;5021998;28;20402;-67
2023/06/14 07:07:34;;;;;;;4.10;1.60;;;33.00;44.80;;;;;;5030123;28;20024;-67
2023/06/14 07:10:04;;;;;;;3.88;1.75;;;32.30;45.10;;;;;;5028744;28;20022;-67
2023/06/14 07:12:31;;;;;;;2.85;1.45;;;32.70;45.20;;;;;;5029203;28;20022;-67
2023/06/14 07:14:57;;;;;;;2.50;1.73;;;32.50;45.00;;;;;;5029372;28;20033;-67
2023/06/14 07:17:23;;;;;;;2.65;1.70;;;33.40;45.50;;;;;;5032863;28;20025;-67
2023/06/14 07:19:48;;;;;;;3.00;1.48;;;33.60;44.40;;;;;;5037603;28;20033;-67
2023/06/14 07:22:14;;;;;;;4.03;1.40;;;34.30;44.40;;;;;;5029781;28;20045;-67
2023/06/14 07:24:40;;;;;;;6.85;1.40;;;34.60;42.50;;;;;;5030011;28;20091;-67
2023/06/14 07:27:06;;;;;;;2.80;1.35;;;34.90;42.90;;;;;;5024558;28;20113;-67
2023/06/14 07:29:31;;;;;;;6.45;1.50;;;34.60;43.00;;;;;;5024777;28;20173;-67
2023/06/14 07:31:57;;;;;;;2.25;1.33;;;34.90;43.00;;;;;;5030519;28;20492;-67
2023/06/14 07:34:22;;;;;;;2.13;1.45;;;33.30;43.00;;;;;;5030961;28;20025;-67
2023/06/14 07:36:48;;;;;;;3.42;1.48;;;33.50;42.20;;;;;;5031973;28;20491;-67
2023/06/14 07:39:14;;;;;;;3.80;1.63;;;33.70;43.00;;;;;;5032116;28;20032;-67
2023/06/14 07:41:40;;;;;;;4.95;1.70;;;33.00;43.30;;;;;;5031624;28;20092;-67
2023/06/14 07:44:05;;;;;;;3.15;1.50;;;32.90;43.50;;;;;;5029586;28;20113;-66
2023/06/14 07:46:31;;;;;;;3.47;1.45;;;33.30;42.30;;;;;;5017602;28;20072;-66
2023/06/14 07:48:56;;;;;;;3.03;1.45;;;33.00;42.80;;;;;;5030787;28;20021;-67
2023/06/14 07:51:23;;;;;;;3.47;1.40;;;32.60;43.10;;;;;;5027272;28;20388;-67
2023/06/14 07:53:49;;;;;;;4.20;1.25;;;32.80;42.40;;;;;;5023737;28;20017;-67
2023/06/14 07:56:15;;;;;;;3.58;1.45;;;33.70;42.50;;;;;;5031142;28;20486;-67
2023/06/14 07:58:40;;;;;;;2.58;1.30;;;33.60;41.80;;;;;;5026610;28;20034;-66
2023/06/14 08:01:07;;;;;;;3.03;1.30;;;33.90;42.70;;;;;;5029259;28;20099;-67
2023/06/14 08:03:34;;;;;;;1.17;1.05;;;33.80;41.60;;;;;;5002110;28;20037;-67
2023/06/14 08:06:00;;;;;;;1.35;1.13;;;34.10;41.50;;;;;;5031245;28;20060;-66
2023/06/14 08:08:26;;;;;;;4.63;1.63;;;34.00;41.70;;;;;;5027199;28;20025;-67
2023/06/14 08:10:52;;;;;;;3.22;1.50;;;34.40;42.20;;;;;;5031773;28;20121;-67
2023/06/14 08:13:17;;;;;;;1.70;1.40;;;33.20;42.70;;;;;;5031282;28;20063;-67
2023/06/14 08:15:43;;;;;;;4.20;1.48;;;33.40;41.90;;;;;;5033495;28;20075;-67
2023/06/14 08:18:09;;;;;;;4.00;1.35;;;33.40;42.10;;;;;;5029580;28;20459;-67
2023/06/14 08:20:35;;;;;;;2.83;1.40;;;33.30;41.10;;;;;;5028412;28;20106;-66
2023/06/14 08:23:02;;;;;;;2.15;1.17;;;32.80;41.10;;;;;;5030173;28;20025;-67
2023/06/14 08:25:27;;;;;;;1.85;1.30;;;32.60;42.40;;;;;;5028751;28;20088;-67
2023/06/14 08:27:53;;;;;;;2.67;1.50;;;32.20;42.60;;;;;;5025877;28;20033;-67
2023/06/14 08:30:19;;;;;;;3.78;1.58;;;32.10;43.00;;;;;;5021895;28;20108;-67
2023/06/14 08:32:44;;;;;;;2.70;1.55;;;32.50;41.70;;;;;;5030108;28;20091;-67
2023/06/14 08:35:12;;;;;;;3.00;1.63;;;32.10;41.30;;;;;;5028510;28;20037;-67
2023/06/14 08:37:41;;;;;;;3.35;1.65;;;32.30;42.70;;;;;;5028546;28;20014;-67
2023/06/14 08:40:21;;;;;;;1.98;1.20;;;32.80;40.90;;;;;;5026870;28;20432;-67
2023/06/14 08:42:54;;;;;;;2.90;1.40;;;33.20;41.00;;;;;;5022956;28;20029;-67
2023/06/14 08:45:21;;;;;;;1.52;1.10;;;32.30;42.10;;;;;;5029165;28;20033;-67
2023/06/14 08:47:51;;;;;;;5.70;1.45;;;32.10;43.10;;;;;;5029043;28;20029;-68
2023/06/14 08:50:20;;;;;;;2.05;1.15;;;32.60;41.60;;;;;;5029341;28;20034;-66
2023/06/14 08:52:50;;;;;;;2.88;1.10;;;33.00;42.20;;;;;;5028075;28;20065;-67
2023/06/14 08:55:17;;;;;;;8.48;1.20;;;32.90;41.20;;;;;;5024532;28;20033;-67
2023/06/14 08:57:44;;;;;;;2.17;1.10;;;33.20;41.50;;;;;;5022024;28;20149;-68
2023/06/14 09:00:12;;;;;;;2.47;1.48;;;33.50;42.10;;;;;;5019233;28;20030;-67
2023/06/14 09:02:43;;;;;;;2.08;1.00;;;32.80;41.00;;;;;;5010560;28;20025;-66
2023/06/14 09:05:09;;;;;;;2.78;1.27;;;33.60;41.20;;;;;;5027522;28;20446;-67
2023/06/14 09:07:36;;;;;;;1.98;1.40;;;33.20;42.60;;;;;;5031308;28;20034;-67
2023/06/14 09:10:10;;;;;;;3.55;1.20;;;33.60;41.40;;;;;;5025127;28;20788;-67
2023/06/14 09:12:36;;;;;;;5.05;1.30;;;33.40;41.40;;;;;;5020338;28;20055;-67
2023/06/14 09:15:05;;;;;;;5.53;1.50;;;33.00;41.80;;;;;;5023399;28;20030;-67
2023/06/14 09:17:33;;;;;;;2.17;0.90;;;33.40;42.10;;;;;;5023690;28;20037;-67
2023/06/14 09:19:59;;;;;;;2.45;1.50;;;32.50;42.00;;;;;;5028522;28;20079;-67
2023/06/14 09:22:25;;;;;;;4.30;1.15;;;32.40;42.60;;;;;;5028019;28;20025;-68
2023/06/14 09:24:50;;;;;;;1.58;1.13;;;33.10;43.00;;;;;;5028110;28;20033;-68
2023/06/14 09:27:16;;;;;;;1.83;1.25;;;33.50;41.70;;;;;;5023618;28;20049;-67
2023/06/14 09:29:41;;;;;;;1.77;1.40;;;32.70;42.10;;;;;;5028533;28;20694;-67
2023/06/14 09:32:07;;;;;;;2.67;1.20;;;32.80;42.60;;;;;;5027421;28;20100;-67
2023/06/14 09:34:35;;;;;;;2.08;1.27;;;32.10;42.60;;;;;;5028912;28;20041;-66
2023/06/14 09:37:01;;;;;;;2.05;1.13;;;32.40;43.30;;;;;;5028430;28;20022;-67
2023/06/14 09:39:27;;;;;;;2.13;1.20;;;32.60;43.10;;;;;;5022148;28;20518;-67
2023/06/14 09:41:52;;;;;;;1.98;1.35;;;32.60;43.00;;;;;;5027208;28;20021;-67
2023/06/14 09:44:20;;;;;;;4.13;1.20;;;32.50;44.00;;;;;;5027220;28;20121;-67
2023/06/14 09:46:46;;;;;;;1.48;1.10;;;33.40;41.90;;;;;;5028219;28;20025;-67
2023/06/14 09:49:11;;;;;;;2.05;1.35;;;32.90;42.30;;;;;;5029738;28;20435;-67
2023/06/14 09:51:43;;;;;;;2.70;1.38;;;32.50;42.40;;;;;;5019526;28;20030;-67
2023/06/14 09:54:15;;;;;;;3.88;1.73;;;31.90;43.00;;;;;;5027795;28;20029;-67
2023/06/14 09:56:44;;;;;;;1.42;1.20;;;32.50;43.70;;;;;;5018936;28;20052;-65
2023/06/14 09:59:12;;;;;;;1.83;1.10;;;32.50;43.80;;;;;;5026076;28;20026;-68
2023/06/14 10:01:42;;;;;;;3.53;1.20;;;31.50;43.80;;;;;;5025383;28;20084;-68
2023/06/14 10:04:10;;;;;;;1.42;1.20;;;31.70;43.70;;;;;;5000835;28;20076;-67
2023/06/14 10:06:45;;;;;;;1.65;1.20;;;31.30;43.60;;;;;;5017617;28;20033;-67
2023/06/14 10:09:11;;;;;;;6.13;1.80;;;31.50;43.50;;;;;;5023030;28;20514;-67
2023/06/14 10:11:44;;;;;;;1.65;0.98;;;31.30;43.40;;;;;;5030888;28;20041;-67
2023/06/14 10:14:11;;;;;;;3.08;1.23;;;31.10;44.40;;;;;;5022510;28;20467;-66
2023/06/14 10:17:06;;;;;;;3.67;1.30;;;30.80;44.40;;;;;;5029968;28;20037;-66
2023/06/14 10:20:00;;;;;;;2.65;1.33;;;29.80;44.30;;;;;;5021108;28;20033;-67
2023/06/14 10:22:33;;;;;;;3.20;1.13;;;29.60;46.60;;;;;;5022491;28;20041;-67
2023/06/14 10:24:59;;;;;;;2.85;1.48;;;29.10;47.70;;;;;;5022892;28;20487;-66
2023/06/14 10:27:25;;;;;;;2.25;1.48;;;28.80;47.20;;;;;;5027823;28;20048;-67
2023/06/14 10:29:53;;;;;;;5.72;1.83;;;28.50;46.20;;;;;;5022531;28;20403;-66
2023/06/14 10:32:20;;;;;;;2.20;1.40;;;28.40;46.90;;;;;;5023438;28;20137;-66
2023/06/14 10:34:57;;;;;;;1.92;1.58;;;28.50;47.90;;;;;;5019305;28;20038;-67
2023/06/14 10:37:24;;;;;;;1.55;1.30;;;28.60;47.80;;;;;;5024462;28;20049;-67
2023/06/14 10:39:50;;;;;;;1.30;1.02;;;28.60;48.60;;;;;;5025030;28;20033;-67
2023/06/14 10:42:16;;;;;;;2.55;1.40;;;28.70;47.50;;;;;;5024082;28;20368;-67
2023/06/14 10:44:59;;;;;;;4.35;1.10;;;28.50;47.10;;;;;;5026769;28;20035;-68
2023/06/14 10:47:34;;;;;;;2.88;1.80;;;28.10;48.10;;;;;;5031039;28;21761;-67
2023/06/14 10:50:11;;;;;;;2.38;1.38;;;27.80;47.90;;;;;;5031830;28;20047;-67
2023/06/14 10:52:42;;;;;;;2.83;1.73;;;27.80;49.50;;;;;;5031201;28;20025;-66
2023/06/14 10:55:18;;;;;;;1.65;1.38;;;27.90;48.00;;;;;;5027816;28;20025;-66
2023/06/14 10:57:52;;;;;;;5.75;1.70;;;27.70;49.10;;;;;;5030729;28;20540;-67
2023/06/14 11:00:24;;;;;;;2.20;1.52;;;28.00;50.80;;;;;;5030226;28;20025;-67
2023/06/14 11:03:16;;;;;;;2.05;1.42;;;27.70;50.40;;;;;;5029003;28;20053;-66
2023/06/14 11:05:52;;;;;;;1.50;1.30;;;28.00;49.30;;;;;;5026533;28;20073;-67
2023/06/14 11:08:29;;;;;;;2.28;1.40;;;28.00;49.70;;;;;;5016593;28;20854;-67
2023/06/14 11:10:58;;;;;;;1.75;1.20;;;28.30;50.20;;;;;;5027284;28;20033;-67
2023/06/14 11:13:25;;;;;;;2.63;1.27;;;27.70;49.10;;;;;;5021168;28;20388;-67
2023/06/14 11:15:53;;;;;;;3.05;1.10;;;27.60;49.80;;;;;;5029361;28;20402;-67
2023/06/14 11:18:24;;;;;;;4.35;1.77;;;27.70;51.30;;;;;;5033297;28;20025;-67
2023/06/14 11:20:49;;;;;;;3.22;1.42;;;27.50;49.90;;;;;;5031908;28;20021;-67
2023/06/14 11:23:15;;;;;;;2.67;1.08;;;27.80;51.20;;;;;;5024528;28;20436;-67
2023/06/14 11:25:41;;;;;;;1.88;1.48;;;28.10;49.40;;;;;;5024823;28;20480;-67
2023/06/14 11:28:07;;;;;;;3.00;1.42;;;27.90;50.60;;;;;;5028894;28;20060;-67
2023/06/14 11:30:33;;;;;;;4.20;1.52;;;27.60;50.30;;;;;;5030147;28;20554;-67
2023/06/14 11:32:58;;;;;;;1.58;1.20;;;26.90;52.20;;;;;;5030123;28;20534;-67
2023/06/14 11:35:25;;;;;;;1.55;1.10;;;26.40;51.10;;;;;;5030339;28;20112;-67
2023/06/14 11:37:56;;;;;;;2.42;1.50;;;26.10;53.30;;;;;;5019611;28;20613;-66
2023/06/14 11:40:24;;;;;;;1.42;1.10;;;25.90;52.20;;;;;;5027319;28;20052;-67
2023/06/14 11:42:50;;;;;;;2.83;1.10;;;26.10;53.60;;;;;;5026114;28;20068;-66
2023/06/14 11:45:15;;;;;;;7.40;1.25;;;26.10;53.40;;;;;;5024589;28;20061;-67
2023/06/14 11:47:41;;;;;;;1.77;1.40;;;26.20;52.70;;;;;;5031161;28;20061;-67
2023/06/14 11:50:08;;;;;;;2.75;1.15;;;26.10;52.60;;;;;;5030062;28;20034;-67
2023/06/14 11:52:35;;;;;;;2.00;1.27;;;26.10;52.80;;;;;;5025921;28;20480;-66
2023/06/14 11:55:06;;;;;;;3.25;1.00;;;26.30;53.10;;;;;;5030443;28;20029;-67
2023/06/14 11:57:36;;;;;;;4.88;1.48;;;26.40;52.50;;;;;;5026668;28;20025;-67
2023/06/14 12:00:07;;;;;;;2.70;1.25;;;26.20;51.30;;;;;;5024981;28;20029;-67
2023/06/14 12:02:33;;;;;;;1.40;1.30;;;26.00;51.60;;;;;;5028803;28;20071;-67
2023/06/14 12:05:06;;;;;;;2.05;1.08;;;25.70;52.10;;;;;;5005811;28;20038;-67
2023/06/14 12:07:32;;;;;;;;;;;25.50;51.20;;;;;;5022533;28;20090;-67
2023/06/14 12:09:57;;;;;;;2.78;1.15;;;25.70;52.80;;;;;;5021330;28;19909;-67
2023/06/14 12:12:27;;;;;;;2.75;1.30;;;25.70;52.90;;;;;;5028769;28;20026;-67
2023/06/14 12:14:53;;;;;;;1.55;1.35;;;25.70;51.60;;;;;;5024043;28;20040;-67
2023/06/14 12:17:19;;;;;;;7.57;1.30;;;25.60;52.50;;;;;;5029958;28;20024;-66
2023/06/14 12:19:46;;;;;;;2.38;1.48;;;25.70;52.10;;;;;;5030758;28;20060;-67
2023/06/14 12:22:13;;;;;;;1.10;1.00;;;25.60;52.40;;;;;;5031101;28;20673;-66
2023/06/14 12:24:39;;;;;;;2.03;1.10;;;25.40;52.90;;;;;;5021368;28;20025;-67
2023/06/14 12:27:05;;;;;;;1.70;1.40;;;25.30;52.50;;;;;;5026482;28;20029;-67
2023/06/14 12:29:32;;;;;;;2.88;1.40;;;25.00;52.60;;;;;;5027609;28;20029;-67
2023/06/14 12:31:58;;;;;;;2.92;1.70;;;24.80;52.50;;;;;;5028617;28;20029;-67
2023/06/14 12:34:24;;;;;;;1.90;1.52;;;24.70;53.00;;;;;;5029851;28;20053;-67
2023/06/14 12:36:55;;;;;;;2.38;1.40;;;24.80;53.60;;;;;;5029008;28;20041;-67
2023/06/14 12:39:21;;;;;;;2.35;1.63;;;25.00;54.10;;;;;;5027924;28;20029;-67
2023/06/14 12:41:48;;;;;;;1.48;1.20;;;25.10;53.30;;;;;;5029203;28;20552;-67
2023/06/14 12:44:14;;;;;;;5.43;1.35;;;25.20;54.50;;;;;;5021091;28;20034;-68
2023/06/14 12:46:41;;;;;;;1.83;1.30;;;24.90;52.10;;;;;;5028077;28;20121;-67
2023/06/14 12:49:11;;;;;;;3.75;1.10;;;25.00;53.60;;;;;;5030815;28;20033;-67